Time,TemperatureF,DewpointF,PressureIn,WindDirection,WindDirectionDegrees,WindSpeedMPH,WindSpeedGustMPH,Humidity,HourlyPrecipIn,Conditions,Clouds,dailyrainin,SoftwareType,DateUTC
2013-04-04 00:00:00,56.1,48.7,29.85,East,90,0.0,2.7,76,0.00,,,0.00,VWS V14.01,2013-04-04 07:00:00,
2013-04-04 00:01:00,56.1,48.7,29.85,SE,135,0.0,2.7,76,0.00,,,0.00,VWS V14.01,2013-04-04 07:01:00,
2013-04-04 00:03:00,56.1,48.7,29.85,SE,135,0.0,0.0,76,0.00,,,0.00,VWS V14.01,2013-04-04 07:03:00,
2013-04-04 00:05:00,56.3,48.5,29.85,ENE,68,0.0,0.0,75,0.00,,,0.00,VWS V14.01,2013-04-04 07:05:00,
2013-04-04 00:06:00,56.3,48.5,29.85,East,90,0.0,0.0,75,0.00,,,0.00,VWS V14.01,2013-04-04 07:06:00,
2013-04-04 00:08:00,56.3,48.5,29.85,East,90,0.0,0.0,75,0.00,,,0.00,VWS V14.01,2013-04-04 07:08:00,
2013-04-04 00:10:00,56.1,48.3,29.85,SW,225,0.0,0.0,75,0.00,,,0.00,VWS V14.01,2013-04-04 07:10:00,
2013-04-04 00:11:00,56.1,48.7,29.85,NNE,22,0.0,0.0,76,0.00,,,0.00,VWS V14.01,2013-04-04 07:11:00,
2013-04-04 00:13:00,56.1,48.3,29.85,NNE,22,0.0,0.0,75,0.00,,,0.00,VWS V14.01,2013-04-04 07:13:00,
2013-04-04 00:15:00,56.1,48.3,29.85,WSW,248,0.0,0.0,75,0.00,,,0.00,VWS V14.01,2013-04-04 07:15:00,
2013-04-04 00:16:00,56.1,48.7,29.85,SE,135,0.0,0.0,76,0.00,,,0.00,VWS V14.01,2013-04-04 07:16:00,
2013-04-04 00:18:00,56.1,48.7,29.85,SE,135,0.0,0.0,76,0.00,,,0.00,VWS V14.01,2013-04-04 07:18:00,
2013-04-04 08:12:00,55.9,48.5,29.85,East,90,0.0,0.0,76,0.00,,,0.00,VWS V14.01,2013-04-04 15:12:00,
2013-04-04 08:17:00,51.6,47.3,29.68,East,90,0.0,0.0,85,0.00,,,0.00,VWS V14.01,2013-04-04 15:17:00,
2013-04-04 08:18:00,51.6,47.3,29.68,East,90,0.0,0.0,85,0.00,,,0.00,VWS V14.01,2013-04-04 15:18:00,
2013-04-04 08:22:00,51.6,47.3,29.68,East,90,0.0,0.0,85,0.00,,,0.00,VWS V14.01,2013-04-04 15:22:00,
2013-04-04 08:23:00,51.6,47.3,29.68,East,90,0.0,0.0,85,0.00,,,0.00,VWS V14.01,2013-04-04 15:23:00,
2013-04-04 08:27:00,51.6,47.3,29.68,East,90,0.0,0.0,85,0.00,,,0.00,VWS V14.01,2013-04-04 15:27:00,
2013-04-04 08:28:00,51.6,47.3,29.68,East,90,0.0,0.0,85,0.00,,,0.00,VWS V14.01,2013-04-04 15:28:00,
2013-04-04 08:32:00,51.6,47.3,29.68,ESE,112,0.0,0.0,85,0.00,,,0.00,VWS V14.01,2013-04-04 15:32:00,
2013-04-04 08:33:00,51.6,47.3,29.68,ESE,112,0.0,0.0,85,0.00,,,0.00,VWS V14.01,2013-04-04 15:33:00,
2013-04-04 08:38:00,51.6,47.6,29.68,ESE,112,0.0,0.0,86,0.00,,,0.00,VWS V14.01,2013-04-04 15:38:00,
2013-04-04 08:43:00,51.6,47.6,29.68,ESE,112,0.0,0.0,86,0.00,,,0.00,VWS V14.01,2013-04-04 15:43:00,
2013-04-04 08:48:00,51.8,47.4,29.68,East,90,0.0,0.0,85,0.00,,,0.00,VWS V14.01,2013-04-04 15:48:00,
2013-04-04 08:53:00,52.0,47.9,29.68,ESE,112,0.0,0.0,86,0.00,,,0.00,VWS V14.01,2013-04-04 15:53:00,
2013-04-04 08:54:00,52.0,47.9,29.68,ESE,112,0.0,0.0,86,0.00,,,0.00,VWS V14.01,2013-04-04 15:54:00,
2013-04-04 08:58:00,52.2,48.1,29.68,ESE,112,0.0,0.0,86,0.00,,,0.00,VWS V14.01,2013-04-04 15:58:00,
2013-04-04 08:59:00,52.2,48.1,29.68,ESE,112,0.0,0.0,86,0.00,,,0.00,VWS V14.01,2013-04-04 15:59:00,
2013-04-04 09:03:00,52.2,48.1,29.68,ESE,112,0.0,0.0,86,0.00,,,0.00,VWS V14.01,2013-04-04 16:03:00,
2013-04-04 09:04:00,52.2,48.1,29.68,ESE,112,0.0,0.0,86,0.00,,,0.00,VWS V14.01,2013-04-04 16:04:00,
2013-04-04 09:08:00,52.3,48.3,29.68,East,90,0.0,0.0,86,0.00,,,0.00,VWS V14.01,2013-04-04 16:08:00,
2013-04-04 09:09:00,52.3,48.3,29.68,East,90,0.0,0.0,86,0.00,,,0.00,VWS V14.01,2013-04-04 16:09:00,
2013-04-04 09:13:00,52.2,48.1,29.68,East,90,1.3,1.6,86,0.00,,,0.00,VWS V14.01,2013-04-04 16:13:00,
2013-04-04 09:14:00,52.0,47.9,29.68,East,90,0.0,1.6,86,0.00,,,0.00,VWS V14.01,2013-04-04 16:14:00,
2013-04-04 09:18:00,52.2,48.4,29.68,East,90,0.0,1.6,87,0.00,,,0.00,VWS V14.01,2013-04-04 16:18:00,
2013-04-04 09:19:00,52.2,48.4,29.68,East,90,0.0,1.6,87,0.00,,,0.00,VWS V14.01,2013-04-04 16:19:00,
2013-04-04 09:23:00,52.3,48.6,29.68,East,90,0.0,1.6,87,0.00,,,0.00,VWS V14.01,2013-04-04 16:23:00,
2013-04-04 09:24:00,52.3,48.6,29.68,East,90,0.0,1.6,87,0.00,,,0.00,VWS V14.01,2013-04-04 16:24:00,
2013-04-04 09:28:00,52.3,48.6,29.68,East,90,0.0,1.3,87,0.00,,,0.00,VWS V14.01,2013-04-04 16:28:00,
2013-04-04 09:29:00,52.3,48.6,29.68,East,90,0.0,0.0,87,0.00,,,0.00,VWS V14.01,2013-04-04 16:29:00,
2013-04-04 09:30:00,52.3,48.6,29.68,East,90,0.0,0.0,87,0.00,,,0.00,VWS V14.01,2013-04-04 16:30:00,
2013-04-04 09:33:00,52.2,48.4,29.68,East,90,0.0,0.0,87,0.00,,,0.00,VWS V14.01,2013-04-04 16:33:00,
2013-04-04 09:34:00,52.2,48.4,29.68,East,90,0.0,0.0,87,0.05,,,0.05,VWS V14.01,2013-04-04 16:34:00,
2013-04-04 09:35:00,52.2,48.4,29.68,East,90,0.0,0.0,87,0.05,,,0.05,VWS V14.01,2013-04-04 16:35:00,
2013-04-04 09:38:00,52.2,48.4,29.68,East,90,0.0,0.0,87,0.05,,,0.05,VWS V14.01,2013-04-04 16:38:00,
2013-04-04 09:40:00,52.2,48.4,29.68,East,90,0.0,0.0,87,0.05,,,0.05,VWS V14.01,2013-04-04 16:40:00,
2013-04-04 09:43:00,52.2,48.4,29.68,East,90,0.0,0.0,87,0.05,,,0.05,VWS V14.01,2013-04-04 16:43:00,
2013-04-04 09:45:00,52.2,48.4,29.68,East,90,0.0,0.0,87,0.05,,,0.05,VWS V14.01,2013-04-04 16:45:00,
2013-04-04 09:46:00,52.2,48.4,29.68,East,90,0.0,0.0,87,0.05,,,0.05,VWS V14.01,2013-04-04 16:46:00,
2013-04-04 09:48:00,52.2,48.4,29.68,ESE,112,0.0,0.0,87,0.05,,,0.05,VWS V14.01,2013-04-04 16:48:00,
2013-04-04 09:50:00,52.2,48.4,29.68,ESE,112,0.0,0.0,87,0.05,,,0.05,VWS V14.01,2013-04-04 16:50:00,
2013-04-04 09:51:00,52.2,48.4,29.68,ESE,112,0.0,0.0,87,0.05,,,0.05,VWS V14.01,2013-04-04 16:51:00,
2013-04-04 09:53:00,52.2,48.4,29.68,ESE,112,0.0,0.0,87,0.05,,,0.05,VWS V14.01,2013-04-04 16:53:00,
2013-04-04 09:55:00,52.2,48.4,29.68,SSW,202,0.0,0.0,87,0.05,,,0.05,VWS V14.01,2013-04-04 16:55:00,
2013-04-04 09:56:00,52.2,48.4,29.68,SSW,202,0.0,0.0,87,0.05,,,0.05,VWS V14.01,2013-04-04 16:56:00,
2013-04-04 09:58:00,52.2,48.4,29.68,SSW,202,0.0,0.0,87,0.05,,,0.05,VWS V14.01,2013-04-04 16:58:00,
2013-04-04 10:00:00,52.0,48.2,29.68,SSW,202,0.0,0.0,87,0.05,,,0.05,VWS V14.01,2013-04-04 17:00:00,
2013-04-04 10:01:00,52.0,48.2,29.68,SSW,202,0.0,0.0,87,0.05,,,0.05,VWS V14.01,2013-04-04 17:01:00,
2013-04-04 10:03:00,52.2,48.4,29.68,SSW,202,0.0,0.0,87,0.05,,,0.05,VWS V14.01,2013-04-04 17:03:00,
2013-04-04 10:05:00,52.2,48.7,29.68,SSW,202,0.0,0.0,88,0.05,,,0.05,VWS V14.01,2013-04-04 17:05:00,
2013-04-04 10:06:00,52.2,48.7,29.68,SSW,202,0.0,0.0,88,0.05,,,0.05,VWS V14.01,2013-04-04 17:06:00,
2013-04-04 10:08:00,52.2,48.7,29.68,East,90,0.0,0.0,88,0.05,,,0.05,VWS V14.01,2013-04-04 17:08:00,
2013-04-04 10:10:00,52.2,48.7,29.68,East,90,0.0,0.0,88,0.05,,,0.05,VWS V14.01,2013-04-04 17:10:00,
2013-04-04 10:12:00,52.2,48.4,29.68,East,90,0.0,0.0,87,0.05,,,0.05,VWS V14.01,2013-04-04 17:12:00,
2013-04-04 10:13:00,52.2,48.7,29.68,NNE,22,0.0,0.0,88,0.05,,,0.05,VWS V14.01,2013-04-04 17:13:00,
2013-04-04 10:15:00,52.2,48.7,29.68,NNE,22,0.0,0.0,88,0.05,,,0.05,VWS V14.01,2013-04-04 17:15:00,
2013-04-04 10:17:00,52.2,48.7,29.68,NNE,22,0.0,0.0,88,0.05,,,0.05,VWS V14.01,2013-04-04 17:17:00,
2013-04-04 10:18:00,52.2,48.7,29.68,NNE,22,0.0,0.0,88,0.09,,,0.09,VWS V14.01,2013-04-04 17:18:00,
2013-04-04 10:20:00,52.2,48.7,29.68,NNE,22,0.0,0.0,88,0.09,,,0.09,VWS V14.01,2013-04-04 17:20:00,
2013-04-04 10:22:00,52.2,48.7,29.68,ENE,68,0.0,0.0,88,0.09,,,0.09,VWS V14.01,2013-04-04 17:22:00,
2013-04-04 10:23:00,52.2,48.7,29.68,East,90,0.0,0.0,88,0.09,,,0.09,VWS V14.01,2013-04-04 17:23:00,
2013-04-04 10:25:00,52.0,48.2,29.68,ENE,68,0.0,0.0,87,0.09,,,0.09,VWS V14.01,2013-04-04 17:25:00,
2013-04-04 10:27:00,52.0,48.2,29.68,ENE,68,0.0,0.0,87,0.09,,,0.09,VWS V14.01,2013-04-04 17:27:00,
2013-04-04 10:29:00,52.0,48.5,29.68,ENE,68,0.0,0.0,88,0.09,,,0.09,VWS V14.01,2013-04-04 17:29:00,
2013-04-04 10:30:00,52.0,48.5,29.68,ENE,68,0.0,0.0,88,0.09,,,0.09,VWS V14.01,2013-04-04 17:30:00,
2013-04-04 10:32:00,52.0,48.5,29.68,East,90,2.9,2.9,88,0.09,,,0.09,VWS V14.01,2013-04-04 17:32:00,
2013-04-04 10:34:00,52.0,48.5,29.68,East,90,3.1,3.1,88,0.09,,,0.09,VWS V14.01,2013-04-04 17:34:00,
2013-04-04 10:35:00,52.0,48.5,29.68,East,90,1.3,3.1,88,0.04,,,0.09,VWS V14.01,2013-04-04 17:35:00,
2013-04-04 10:36:00,52.0,48.5,29.68,East,90,1.3,3.1,88,0.04,,,0.09,VWS V14.01,2013-04-04 17:36:00,
2013-04-04 10:37:00,52.0,48.5,29.68,East,90,1.3,3.1,88,0.04,,,0.09,VWS V14.01,2013-04-04 17:37:00,
2013-04-04 10:40:00,52.0,48.5,29.68,East,90,1.6,3.1,88,0.04,,,0.09,VWS V14.01,2013-04-04 17:40:00,
2013-04-04 10:41:00,52.0,48.5,29.68,East,90,1.3,3.1,88,0.04,,,0.09,VWS V14.01,2013-04-04 17:41:00,
2013-04-04 10:42:00,52.0,48.5,29.68,East,90,1.3,3.1,88,0.04,,,0.09,VWS V14.01,2013-04-04 17:42:00,
2013-04-04 10:45:00,52.2,49.0,29.68,ENE,68,0.0,3.1,89,0.04,,,0.09,VWS V14.01,2013-04-04 17:45:00,
2013-04-04 10:47:00,52.2,49.0,29.68,East,90,0.0,3.1,89,0.04,,,0.09,VWS V14.01,2013-04-04 17:47:00,
2013-04-04 10:50:00,52.0,48.5,29.68,East,90,3.8,3.8,88,0.08,,,0.13,VWS V14.01,2013-04-04 17:50:00,
2013-04-04 10:52:00,51.8,48.4,29.68,East,90,3.4,3.8,88,0.08,,,0.13,VWS V14.01,2013-04-04 17:52:00,
2013-04-04 10:55:00,51.8,48.7,29.68,ESE,112,1.1,3.8,89,0.08,,,0.13,VWS V14.01,2013-04-04 17:55:00,
2013-04-04 10:57:00,51.8,48.7,29.68,ESE,112,1.1,3.8,89,0.08,,,0.13,VWS V14.01,2013-04-04 17:57:00,
2013-04-04 11:01:00,51.8,48.7,29.68,East,90,0.0,3.8,89,0.08,,,0.13,VWS V14.01,2013-04-04 18:01:00,
2013-04-04 11:02:00,51.8,48.7,29.68,ENE,68,0.0,3.8,89,0.08,,,0.13,VWS V14.01,2013-04-04 18:02:00,
2013-04-04 11:06:00,51.8,48.7,29.68,East,90,0.0,3.8,89,0.08,,,0.13,VWS V14.01,2013-04-04 18:06:00,
2013-04-04 11:07:00,52.0,48.8,29.65,East,90,0.0,3.4,89,0.08,,,0.13,VWS V14.01,2013-04-04 18:07:00,
2013-04-04 11:11:00,52.0,48.8,29.65,ENE,68,0.0,2.7,89,0.08,,,0.13,VWS V14.01,2013-04-04 18:11:00,
2013-04-04 11:12:00,52.0,48.8,29.65,NNE,22,0.0,2.7,89,0.08,,,0.13,VWS V14.01,2013-04-04 18:12:00,
2013-04-04 11:13:00,52.0,48.8,29.65,NNE,22,0.0,2.7,89,0.08,,,0.13,VWS V14.01,2013-04-04 18:13:00,
2013-04-04 11:16:00,52.2,49.3,29.65,NNE,22,0.0,2.7,90,0.08,,,0.13,VWS V14.01,2013-04-04 18:16:00,
2013-04-04 11:18:00,52.2,49.3,29.65,ENE,68,0.0,2.7,90,0.08,,,0.13,VWS V14.01,2013-04-04 18:18:00,
2013-04-04 11:21:00,52.3,49.5,29.65,ENE,68,0.0,0.0,90,0.04,,,0.13,VWS V14.01,2013-04-04 18:21:00,
2013-04-04 11:23:00,52.3,49.5,29.68,East,90,0.0,0.0,90,0.04,,,0.13,VWS V14.01,2013-04-04 18:23:00,
2013-04-04 11:26:00,52.3,49.5,29.68,East,90,0.0,0.0,90,0.04,,,0.13,VWS V14.01,2013-04-04 18:26:00,
2013-04-04 11:28:00,52.3,49.2,29.68,East,90,0.0,0.0,89,0.04,,,0.13,VWS V14.01,2013-04-04 18:28:00,
2013-04-04 11:32:00,52.5,49.4,29.68,East,90,0.0,0.0,89,0.08,,,0.17,VWS V14.01,2013-04-04 18:32:00,
2013-04-04 11:33:00,52.3,49.2,29.68,East,90,0.0,0.0,89,0.08,,,0.17,VWS V14.01,2013-04-04 18:33:00,
2013-04-04 11:37:00,52.7,49.8,29.65,East,90,0.0,0.0,90,0.08,,,0.17,VWS V14.01,2013-04-04 18:37:00,
2013-04-04 11:38:00,52.7,49.8,29.65,NE,45,0.0,0.0,90,0.08,,,0.17,VWS V14.01,2013-04-04 18:38:00,
2013-04-04 11:42:00,52.7,49.8,29.65,East,90,0.0,0.0,90,0.08,,,0.17,VWS V14.01,2013-04-04 18:42:00,
2013-04-04 11:43:00,52.7,49.8,29.65,East,90,0.0,0.0,90,0.08,,,0.17,VWS V14.01,2013-04-04 18:43:00,
2013-04-04 11:47:00,52.7,49.8,29.65,SW,225,0.0,1.1,90,0.08,,,0.17,VWS V14.01,2013-04-04 18:47:00,
2013-04-04 11:48:00,52.7,49.8,29.65,WSW,248,0.0,1.1,90,0.08,,,0.17,VWS V14.01,2013-04-04 18:48:00,
2013-04-04 11:53:00,52.7,50.2,29.65,SSE,158,0.0,1.1,91,0.08,,,0.21,VWS V14.01,2013-04-04 18:53:00,
2013-04-04 11:58:00,52.9,50.3,29.65,NE,45,0.0,1.1,91,0.08,,,0.21,VWS V14.01,2013-04-04 18:58:00,
2013-04-04 11:59:00,52.7,50.2,29.65,East,90,0.0,1.1,91,0.08,,,0.21,VWS V14.01,2013-04-04 18:59:00,
2013-04-04 12:03:00,52.7,50.5,29.65,West,270,0.0,1.1,92,0.08,,,0.21,VWS V14.01,2013-04-04 19:03:00,
2013-04-04 12:04:00,52.7,50.5,29.65,SSE,158,0.0,1.1,92,0.08,,,0.21,VWS V14.01,2013-04-04 19:04:00,
2013-04-04 12:08:00,52.9,50.6,29.65,SE,135,0.0,0.0,92,0.08,,,0.21,VWS V14.01,2013-04-04 19:08:00,
2013-04-04 12:09:00,52.9,50.6,29.65,SE,135,0.0,0.0,92,0.08,,,0.21,VWS V14.01,2013-04-04 19:09:00,
2013-04-04 12:13:00,52.9,50.6,29.65,WNW,292,0.0,0.0,92,0.08,,,0.21,VWS V14.01,2013-04-04 19:13:00,
2013-04-04 12:14:00,53.1,50.8,29.65,East,90,0.0,0.0,92,0.08,,,0.21,VWS V14.01,2013-04-04 19:14:00,
2013-04-04 12:18:00,53.1,50.8,29.65,ESE,112,0.0,0.0,92,0.08,,,0.21,VWS V14.01,2013-04-04 19:18:00,
2013-04-04 12:19:00,53.1,51.1,29.65,WNW,292,0.0,0.0,93,0.08,,,0.21,VWS V14.01,2013-04-04 19:19:00,
2013-04-04 12:23:00,53.1,51.1,29.65,WSW,248,0.0,0.0,93,0.13,,,0.26,VWS V14.01,2013-04-04 19:23:00,
2013-04-04 12:24:00,53.1,51.1,29.65,WNW,292,1.1,1.1,93,0.13,,,0.26,VWS V14.01,2013-04-04 19:24:00,
2013-04-04 12:28:00,53.2,51.3,29.65,NNW,338,0.0,1.1,93,0.13,,,0.26,VWS V14.01,2013-04-04 19:28:00,
2013-04-04 12:29:00,53.2,51.3,29.65,NNW,338,0.0,1.1,93,0.13,,,0.26,VWS V14.01,2013-04-04 19:29:00,
2013-04-04 12:30:00,53.2,51.3,29.65,WNW,292,0.0,1.1,93,0.13,,,0.26,VWS V14.01,2013-04-04 19:30:00,
2013-04-04 12:33:00,53.2,51.3,29.65,NW,315,0.0,1.1,93,0.09,,,0.26,VWS V14.01,2013-04-04 19:33:00,
2013-04-04 12:34:00,53.2,51.3,29.65,ESE,112,0.0,1.1,93,0.09,,,0.26,VWS V14.01,2013-04-04 19:34:00,
2013-04-04 12:35:00,53.2,51.3,29.65,ESE,112,0.0,1.1,93,0.09,,,0.26,VWS V14.01,2013-04-04 19:35:00,
2013-04-04 12:38:00,53.2,51.3,29.65,WSW,248,0.9,1.1,93,0.09,,,0.26,VWS V14.01,2013-04-04 19:38:00,
2013-04-04 12:39:00,53.2,51.3,29.65,SW,225,0.0,1.1,93,0.09,,,0.26,VWS V14.01,2013-04-04 19:39:00,
2013-04-04 12:40:00,53.2,51.3,29.65,WNW,292,0.0,1.1,93,0.09,,,0.26,VWS V14.01,2013-04-04 19:40:00,
2013-04-04 12:43:00,53.2,51.3,29.65,WNW,292,0.0,0.9,93,0.09,,,0.26,VWS V14.01,2013-04-04 19:43:00,
2013-04-04 12:44:00,53.4,51.5,29.65,WNW,292,0.0,0.9,93,0.09,,,0.26,VWS V14.01,2013-04-04 19:44:00,
2013-04-04 12:45:00,53.4,51.5,29.65,West,270,0.0,0.9,93,0.09,,,0.26,VWS V14.01,2013-04-04 19:45:00,
2013-04-04 12:48:00,53.4,51.5,29.65,WSW,248,0.0,0.9,93,0.09,,,0.26,VWS V14.01,2013-04-04 19:48:00,
2013-04-04 12:50:00,53.4,51.5,29.65,ENE,68,0.0,0.9,93,0.09,,,0.26,VWS V14.01,2013-04-04 19:50:00,
2013-04-04 12:53:00,53.6,51.6,29.65,NNE,22,0.0,0.9,93,0.05,,,0.26,VWS V14.01,2013-04-04 19:53:00,
2013-04-04 12:54:00,53.6,51.6,29.65,NNE,22,0.0,0.9,93,0.05,,,0.26,VWS V14.01,2013-04-04 19:54:00,
2013-04-04 12:55:00,53.6,51.6,29.65,NNE,22,0.0,0.0,93,0.05,,,0.26,VWS V14.01,2013-04-04 19:55:00,
2013-04-04 12:58:00,53.6,51.6,29.65,West,270,0.0,0.0,93,0.05,,,0.26,VWS V14.01,2013-04-04 19:58:00,
2013-04-04 12:59:00,53.6,51.6,29.65,West,270,0.0,0.0,93,0.05,,,0.26,VWS V14.01,2013-04-04 19:59:00,
2013-04-04 13:00:00,53.6,51.6,29.65,WNW,292,0.0,0.0,93,0.09,,,0.30,VWS V14.01,2013-04-04 20:00:00,
2013-04-04 13:04:00,53.8,51.5,29.65,WSW,248,0.0,2.9,92,0.09,,,0.30,VWS V14.01,2013-04-04 20:04:00,
2013-04-04 13:05:00,53.8,51.5,29.65,West,270,0.0,2.9,92,0.09,,,0.30,VWS V14.01,2013-04-04 20:05:00,
2013-04-04 13:09:00,54.1,52.2,29.65,WNW,292,0.0,2.9,93,0.09,,,0.30,VWS V14.01,2013-04-04 20:09:00,
2013-04-04 13:10:00,54.1,52.2,29.65,WNW,292,0.0,2.9,93,0.09,,,0.30,VWS V14.01,2013-04-04 20:10:00,
2013-04-04 13:14:00,54.5,52.5,29.65,WNW,292,0.0,2.9,93,0.09,,,0.30,VWS V14.01,2013-04-04 20:14:00,
2013-04-04 13:15:00,54.5,52.5,29.65,WNW,292,0.0,2.9,93,0.09,,,0.30,VWS V14.01,2013-04-04 20:15:00,
2013-04-04 13:16:00,54.5,52.5,29.65,WNW,292,0.0,2.9,93,0.09,,,0.30,VWS V14.01,2013-04-04 20:16:00,
2013-04-04 13:19:00,54.7,53.0,29.65,East,90,0.0,2.5,94,0.09,,,0.30,VWS V14.01,2013-04-04 20:19:00,
2013-04-04 13:20:00,54.7,52.7,29.65,ENE,68,0.0,2.5,93,0.09,,,0.30,VWS V14.01,2013-04-04 20:20:00,
2013-04-04 13:21:00,54.7,52.7,29.65,NNW,338,1.1,2.5,93,0.09,,,0.30,VWS V14.01,2013-04-04 20:21:00,
2013-04-04 13:24:00,54.7,52.7,29.65,WNW,292,0.0,2.5,93,0.04,,,0.30,VWS V14.01,2013-04-04 20:24:00,
2013-04-04 13:25:00,54.7,52.7,29.65,NNW,338,0.0,2.5,93,0.04,,,0.30,VWS V14.01,2013-04-04 20:25:00,
2013-04-04 13:27:00,54.7,52.7,29.65,NNW,338,0.0,2.5,93,0.04,,,0.30,VWS V14.01,2013-04-04 20:27:00,
2013-04-04 13:29:00,54.7,52.7,29.65,ENE,68,0.9,2.9,93,0.04,,,0.30,VWS V14.01,2013-04-04 20:29:00,
2013-04-04 13:30:00,54.9,52.9,29.65,ESE,112,2.7,2.9,93,0.04,,,0.30,VWS V14.01,2013-04-04 20:30:00,
2013-04-04 13:32:00,54.9,52.9,29.65,WNW,292,0.0,2.9,93,0.04,,,0.30,VWS V14.01,2013-04-04 20:32:00,
2013-04-04 13:35:00,54.9,52.6,29.65,ESE,112,1.1,2.9,92,0.04,,,0.30,VWS V14.01,2013-04-04 20:35:00,
2013-04-04 13:36:00,54.9,52.6,29.65,NE,45,1.3,2.9,92,0.04,,,0.30,VWS V14.01,2013-04-04 20:36:00,
2013-04-04 13:37:00,55.0,52.8,29.62,East,90,1.3,2.9,92,0.04,,,0.30,VWS V14.01,2013-04-04 20:37:00,
2013-04-04 13:40:00,55.0,52.8,29.62,East,90,1.1,2.9,92,0.04,,,0.30,VWS V14.01,2013-04-04 20:40:00,
2013-04-04 13:41:00,55.2,53.2,29.62,East,90,1.1,2.9,93,0.04,,,0.30,VWS V14.01,2013-04-04 20:41:00,
2013-04-04 13:42:00,55.2,52.9,29.62,NE,45,1.6,2.9,92,0.04,,,0.30,VWS V14.01,2013-04-04 20:42:00,
2013-04-04 13:45:00,55.2,52.9,29.62,WNW,292,2.5,3.6,92,0.04,,,0.30,VWS V14.01,2013-04-04 20:45:00,
2013-04-04 13:46:00,55.2,52.9,29.62,East,90,2.7,3.6,92,0.04,,,0.30,VWS V14.01,2013-04-04 20:46:00,
2013-04-04 13:48:00,55.4,53.1,29.62,East,90,3.1,4.0,92,0.04,,,0.30,VWS V14.01,2013-04-04 20:48:00,
2013-04-04 13:50:00,55.4,53.1,29.62,ESE,112,7.2,7.2,92,0.04,,,0.30,VWS V14.01,2013-04-04 20:50:00,
2013-04-04 13:51:00,55.4,53.1,29.62,ESE,112,7.2,7.2,92,0.04,,,0.30,VWS V14.01,2013-04-04 20:51:00,
2013-04-04 13:53:00,55.4,53.1,29.62,East,90,4.0,7.2,92,0.04,,,0.30,VWS V14.01,2013-04-04 20:53:00,
2013-04-04 13:55:00,55.6,53.3,29.62,ENE,68,4.3,7.2,92,0.04,,,0.30,VWS V14.01,2013-04-04 20:55:00,
2013-04-04 13:56:00,55.6,53.3,29.62,ENE,68,4.3,7.2,92,0.04,,,0.30,VWS V14.01,2013-04-04 20:56:00,
2013-04-04 13:57:00,55.6,53.3,29.62,NNW,338,2.2,7.2,92,0.04,,,0.30,VWS V14.01,2013-04-04 20:57:00,
2013-04-04 13:58:00,55.6,53.3,29.62,NNE,22,3.4,7.2,92,0.04,,,0.30,VWS V14.01,2013-04-04 20:58:00,
2013-04-04 14:00:00,55.8,53.8,29.62,ENE,68,4.9,7.2,93,0.00,,,0.30,VWS V14.01,2013-04-04 21:00:00,
2013-04-04 14:01:00,55.8,53.8,29.62,NE,45,2.7,7.2,93,0.00,,,0.30,VWS V14.01,2013-04-04 21:01:00,
2013-04-04 14:02:00,55.8,53.8,29.62,ENE,68,2.5,7.2,93,0.00,,,0.30,VWS V14.01,2013-04-04 21:02:00,
2013-04-04 14:03:00,55.8,53.8,29.62,East,90,3.1,7.2,93,0.00,,,0.30,VWS V14.01,2013-04-04 21:03:00,
2013-04-04 14:05:00,55.8,53.8,29.62,ENE,68,4.9,6.3,93,0.00,,,0.30,VWS V14.01,2013-04-04 21:05:00,
2013-04-04 14:06:00,55.8,53.8,29.62,ENE,68,4.9,6.3,93,0.00,,,0.30,VWS V14.01,2013-04-04 21:06:00,
2013-04-04 14:07:00,55.8,53.8,29.62,North,0,3.6,6.3,93,0.00,,,0.30,VWS V14.01,2013-04-04 21:07:00,
2013-04-04 14:08:00,55.8,53.8,29.62,East,90,6.0,6.3,93,0.00,,,0.30,VWS V14.01,2013-04-04 21:08:00,
2013-04-04 14:10:00,55.8,53.8,29.62,NNE,22,6.0,6.0,93,0.00,,,0.30,VWS V14.01,2013-04-04 21:10:00,
2013-04-04 14:11:00,55.8,53.8,29.62,NNE,22,6.0,6.0,93,0.00,,,0.30,VWS V14.01,2013-04-04 21:11:00,
2013-04-04 14:12:00,55.8,53.8,29.62,East,90,7.2,7.2,93,0.00,,,0.30,VWS V14.01,2013-04-04 21:12:00,
2013-04-04 14:13:00,55.8,53.8,29.62,East,90,12.1,12.1,93,0.00,,,0.30,VWS V14.01,2013-04-04 21:13:00,
2013-04-04 14:15:00,55.8,53.8,29.62,NE,45,4.0,12.1,93,0.00,,,0.30,VWS V14.01,2013-04-04 21:15:00,
2013-04-04 14:16:00,55.8,53.8,29.62,East,90,4.9,12.1,93,0.00,,,0.30,VWS V14.01,2013-04-04 21:16:00,
2013-04-04 14:17:00,55.9,54.0,29.62,NE,45,3.8,12.1,93,0.00,,,0.30,VWS V14.01,2013-04-04 21:17:00,
2013-04-04 14:19:00,55.9,54.0,29.62,East,90,3.6,12.1,93,0.00,,,0.30,VWS V14.01,2013-04-04 21:19:00,
2013-04-04 14:20:00,55.9,54.0,29.62,ENE,68,3.6,12.1,93,0.00,,,0.30,VWS V14.01,2013-04-04 21:20:00,
2013-04-04 14:21:00,55.9,54.0,29.62,ENE,68,3.6,12.1,93,0.00,,,0.30,VWS V14.01,2013-04-04 21:21:00,
2013-04-04 14:22:00,55.9,54.0,29.62,NNW,338,3.8,12.1,93,0.00,,,0.30,VWS V14.01,2013-04-04 21:22:00,
2013-04-04 14:24:00,55.9,54.0,29.62,ESE,112,3.8,6.0,93,0.00,,,0.30,VWS V14.01,2013-04-04 21:24:00,
2013-04-04 14:26:00,55.9,54.0,29.62,ESE,112,4.9,6.0,93,0.00,,,0.30,VWS V14.01,2013-04-04 21:26:00,
2013-04-04 14:27:00,56.1,54.1,29.62,East,90,4.3,6.0,93,0.00,,,0.30,VWS V14.01,2013-04-04 21:27:00,
2013-04-04 14:29:00,56.1,54.1,29.62,NE,45,5.8,8.5,93,0.00,,,0.30,VWS V14.01,2013-04-04 21:29:00,
2013-04-04 14:31:00,56.3,54.3,29.62,East,90,5.8,8.5,93,0.00,,,0.30,VWS V14.01,2013-04-04 21:31:00,
2013-04-04 14:32:00,56.3,54.3,29.62,NNE,22,5.8,8.5,93,0.00,,,0.30,VWS V14.01,2013-04-04 21:32:00,
2013-04-04 14:34:00,56.3,54.3,29.62,NE,45,4.3,8.5,93,0.00,,,0.30,VWS V14.01,2013-04-04 21:34:00,
2013-04-04 14:35:00,56.5,54.5,29.62,NNW,338,2.0,8.5,93,0.00,,,0.30,VWS V14.01,2013-04-04 21:35:00,
2013-04-04 14:36:00,56.5,54.5,29.62,NE,45,3.4,8.5,93,0.00,,,0.30,VWS V14.01,2013-04-04 21:36:00,
2013-04-04 14:37:00,56.7,54.7,29.62,East,90,3.1,8.5,93,0.00,,,0.30,VWS V14.01,2013-04-04 21:37:00,
2013-04-04 14:40:00,56.7,54.7,29.62,NNE,22,2.7,8.5,93,0.00,,,0.30,VWS V14.01,2013-04-04 21:40:00,
2013-04-04 14:41:00,56.7,54.7,29.62,WNW,292,3.8,8.5,93,0.00,,,0.30,VWS V14.01,2013-04-04 21:41:00,
2013-04-04 14:42:00,56.7,54.7,29.62,ESE,112,2.7,8.5,93,0.00,,,0.30,VWS V14.01,2013-04-04 21:42:00,
2013-04-04 14:45:00,56.7,54.7,29.62,NE,45,4.7,5.8,93,0.00,,,0.30,VWS V14.01,2013-04-04 21:45:00,
2013-04-04 14:46:00,56.7,54.7,29.62,NE,45,3.8,5.8,93,0.00,,,0.30,VWS V14.01,2013-04-04 21:46:00,
2013-04-04 14:48:00,56.5,54.5,29.62,ENE,68,3.1,5.6,93,0.00,,,0.30,VWS V14.01,2013-04-04 21:48:00,
2013-04-04 14:50:00,56.3,54.3,29.62,WSW,248,2.5,5.6,93,0.00,,,0.30,VWS V14.01,2013-04-04 21:50:00,
2013-04-04 14:51:00,56.3,54.3,29.62,WSW,248,2.5,5.6,93,0.00,,,0.30,VWS V14.01,2013-04-04 21:51:00,
2013-04-04 14:52:00,56.3,54.3,29.62,ENE,68,1.6,5.6,93,0.00,,,0.30,VWS V14.01,2013-04-04 21:52:00,
2013-04-04 14:53:00,56.3,54.3,29.62,ENE,68,1.6,5.6,93,0.00,,,0.30,VWS V14.01,2013-04-04 21:53:00,
2013-04-04 14:55:00,56.3,54.3,29.62,NNE,22,2.7,5.6,93,0.00,,,0.30,VWS V14.01,2013-04-04 21:55:00,
2013-04-04 14:56:00,56.3,54.3,29.62,ENE,68,8.1,8.1,93,0.00,,,0.30,VWS V14.01,2013-04-04 21:56:00,
2013-04-04 14:58:00,56.3,54.3,29.62,NE,45,0.0,8.1,93,0.00,,,0.30,VWS V14.01,2013-04-04 21:58:00,
2013-04-04 15:01:00,56.3,54.6,29.62,ENE,68,2.7,8.1,94,0.00,,,0.30,VWS V14.01,2013-04-04 22:01:00,
2013-04-04 15:02:00,56.3,54.6,29.62,WNW,292,3.1,8.1,94,0.00,,,0.30,VWS V14.01,2013-04-04 22:02:00,
2013-04-04 15:03:00,56.3,54.6,29.62,East,90,2.0,8.1,94,0.00,,,0.30,VWS V14.01,2013-04-04 22:03:00,
2013-04-04 15:06:00,56.3,54.6,29.62,WSW,248,2.7,8.1,94,0.00,,,0.30,VWS V14.01,2013-04-04 22:06:00,
2013-04-04 15:07:00,56.3,54.6,29.62,NW,315,3.8,8.1,94,0.00,,,0.30,VWS V14.01,2013-04-04 22:07:00,
2013-04-04 15:08:00,56.5,54.8,29.62,NE,45,2.9,8.1,94,0.00,,,0.30,VWS V14.01,2013-04-04 22:08:00,
2013-04-04 15:11:00,56.5,54.5,29.62,North,0,2.9,8.1,93,0.00,,,0.30,VWS V14.01,2013-04-04 22:11:00,
2013-04-04 15:12:00,56.5,54.5,29.62,ENE,68,3.1,8.1,93,0.00,,,0.30,VWS V14.01,2013-04-04 22:12:00,
2013-04-04 15:13:00,56.5,54.5,29.62,WNW,292,3.4,8.1,93,0.00,,,0.30,VWS V14.01,2013-04-04 22:13:00,
2013-04-04 15:17:00,56.5,54.5,29.62,NE,45,6.0,6.5,93,0.00,,,0.30,VWS V14.01,2013-04-04 22:17:00,
2013-04-04 15:18:00,56.5,54.5,29.62,ENE,68,4.3,6.5,93,0.00,,,0.30,VWS V14.01,2013-04-04 22:18:00,
2013-04-04 15:22:00,56.7,55.0,29.62,NNW,338,1.1,6.0,94,0.00,,,0.30,VWS V14.01,2013-04-04 22:22:00,
2013-04-04 15:23:00,56.7,55.0,29.62,NNW,338,0.0,6.0,94,0.00,,,0.30,VWS V14.01,2013-04-04 22:23:00,
2013-04-04 15:27:00,56.8,55.1,29.62,West,270,0.0,1.1,94,0.00,,,0.30,VWS V14.01,2013-04-04 22:27:00,
2013-04-04 15:28:00,56.8,55.1,29.62,WNW,292,2.0,2.0,94,0.00,,,0.30,VWS V14.01,2013-04-04 22:28:00,
2013-04-04 15:32:00,56.8,54.8,29.62,North,0,1.6,4.0,93,0.00,,,0.30,VWS V14.01,2013-04-04 22:32:00,
2013-04-04 15:33:00,56.8,54.8,29.62,NNW,338,1.3,4.0,93,0.00,,,0.30,VWS V14.01,2013-04-04 22:33:00,
2013-04-04 15:37:00,56.8,54.8,29.65,East,90,0.9,2.5,93,0.00,,,0.30,VWS V14.01,2013-04-04 22:37:00,
2013-04-04 15:38:00,57.0,55.0,29.65,WNW,292,3.1,3.1,93,0.00,,,0.30,VWS V14.01,2013-04-04 22:38:00,
2013-04-04 15:39:00,57.0,55.0,29.65,WNW,292,0.0,3.1,93,0.00,,,0.30,VWS V14.01,2013-04-04 22:39:00,
2013-04-04 15:42:00,57.0,55.0,29.65,ENE,68,0.9,3.1,93,0.00,,,0.30,VWS V14.01,2013-04-04 22:42:00,
2013-04-04 15:43:00,57.2,55.2,29.65,NE,45,2.9,3.1,93,0.00,,,0.30,VWS V14.01,2013-04-04 22:43:00,
2013-04-04 15:44:00,57.2,55.2,29.65,East,90,8.1,8.1,93,0.00,,,0.30,VWS V14.01,2013-04-04 22:44:00,
2013-04-04 15:47:00,57.2,55.2,29.65,NNW,338,2.2,8.1,93,0.00,,,0.30,VWS V14.01,2013-04-04 22:47:00,
2013-04-04 15:48:00,57.2,54.9,29.65,NNW,338,3.4,8.1,92,0.00,,,0.30,VWS V14.01,2013-04-04 22:48:00,
2013-04-04 15:50:00,57.2,54.9,29.65,NNW,338,1.3,8.1,92,0.00,,,0.30,VWS V14.01,2013-04-04 22:50:00,
2013-04-04 15:52:00,57.2,55.2,29.65,WSW,248,0.9,8.1,93,0.00,,,0.30,VWS V14.01,2013-04-04 22:52:00,
2013-04-04 15:53:00,57.2,55.2,29.65,NNE,22,3.8,8.1,93,0.00,,,0.30,VWS V14.01,2013-04-04 22:53:00,
2013-04-04 15:55:00,57.2,54.9,29.65,NE,45,1.3,8.1,92,0.00,,,0.30,VWS V14.01,2013-04-04 22:55:00,
2013-04-04 15:57:00,57.2,54.9,29.65,NNW,338,2.0,8.1,92,0.00,,,0.30,VWS V14.01,2013-04-04 22:57:00,
2013-04-04 15:58:00,57.2,54.9,29.65,NNE,22,1.6,3.8,92,0.00,,,0.30,VWS V14.01,2013-04-04 22:58:00,
2013-04-04 16:00:00,57.4,55.1,29.65,NE,45,0.0,3.8,92,0.00,,,0.30,VWS V14.01,2013-04-04 23:00:00,
2013-04-04 16:02:00,57.4,55.1,29.65,NNW,338,2.0,3.8,92,0.00,,,0.30,VWS V14.01,2013-04-04 23:02:00,
2013-04-04 16:03:00,57.4,55.1,29.65,NNW,338,2.0,3.8,92,0.00,,,0.30,VWS V14.01,2013-04-04 23:03:00,
2013-04-04 16:05:00,57.4,55.1,29.65,NE,45,2.7,3.1,92,0.00,,,0.30,VWS V14.01,2013-04-04 23:05:00,
2013-04-04 16:07:00,57.6,55.3,29.65,ENE,68,2.7,4.3,92,0.00,,,0.30,VWS V14.01,2013-04-04 23:07:00,
2013-04-04 16:08:00,57.6,55.3,29.65,ENE,68,2.7,4.3,92,0.00,,,0.30,VWS V14.01,2013-04-04 23:08:00,
2013-04-04 16:10:00,57.6,55.3,29.65,NE,45,5.6,5.6,92,0.00,,,0.30,VWS V14.01,2013-04-04 23:10:00,
2013-04-04 16:12:00,57.7,55.1,29.65,NE,45,4.0,5.6,91,0.00,,,0.30,VWS V14.01,2013-04-04 23:12:00,
2013-04-04 16:13:00,57.7,55.1,29.65,NE,45,4.0,5.6,91,0.00,,,0.30,VWS V14.01,2013-04-04 23:13:00,
2013-04-04 16:15:00,57.7,55.1,29.65,NE,45,3.1,5.8,91,0.00,,,0.30,VWS V14.01,2013-04-04 23:15:00,
2013-04-04 16:18:00,57.7,55.1,29.65,NE,45,3.6,5.8,91,0.00,,,0.30,VWS V14.01,2013-04-04 23:18:00,
2013-04-04 16:20:00,57.7,55.1,29.65,ENE,68,4.7,5.8,91,0.00,,,0.30,VWS V14.01,2013-04-04 23:20:00,
2013-04-04 16:23:00,57.7,55.1,29.65,North,0,2.9,4.7,91,0.00,,,0.30,VWS V14.01,2013-04-04 23:23:00,
2013-04-04 16:25:00,57.7,55.1,29.65,SSE,158,2.9,4.7,91,0.00,,,0.30,VWS V14.01,2013-04-04 23:25:00,
2013-04-04 16:28:00,57.7,55.1,29.65,NNE,22,2.5,4.7,91,0.00,,,0.30,VWS V14.01,2013-04-04 23:28:00,
2013-04-04 16:29:00,57.7,55.1,29.65,NNW,338,1.3,4.7,91,0.00,,,0.30,VWS V14.01,2013-04-04 23:29:00,
2013-04-04 16:30:00,57.9,55.0,29.65,NE,45,3.4,4.7,90,0.00,,,0.30,VWS V14.01,2013-04-04 23:30:00,
2013-04-04 16:33:00,57.9,55.0,29.65,NE,45,4.9,4.9,90,0.00,,,0.30,VWS V14.01,2013-04-04 23:33:00,
2013-04-04 16:34:00,57.9,55.0,29.65,NNW,338,2.2,4.9,90,0.00,,,0.30,VWS V14.01,2013-04-04 23:34:00,
2013-04-04 16:36:00,58.1,55.2,29.65,ENE,68,3.1,4.9,90,0.00,,,0.30,VWS V14.01,2013-04-04 23:36:00,
2013-04-04 16:38:00,58.1,54.9,29.65,NW,315,2.5,4.9,89,0.00,,,0.30,VWS V14.01,2013-04-04 23:38:00,
2013-04-04 16:39:00,58.3,55.1,29.65,ENE,68,2.7,4.9,89,0.00,,,0.30,VWS V14.01,2013-04-04 23:39:00,
2013-04-04 16:41:00,58.3,55.1,29.65,WNW,292,1.6,4.9,89,0.00,,,0.30,VWS V14.01,2013-04-04 23:41:00,
2013-04-04 16:43:00,58.3,54.8,29.65,ENE,68,4.3,4.9,88,0.00,,,0.30,VWS V14.01,2013-04-04 23:43:00,
2013-04-04 16:44:00,58.1,54.6,29.65,NE,45,2.7,4.9,88,0.00,,,0.30,VWS V14.01,2013-04-04 23:44:00,
2013-04-04 16:46:00,58.1,54.6,29.65,ENE,68,2.0,4.9,88,0.00,,,0.30,VWS V14.01,2013-04-04 23:46:00,
2013-04-04 16:48:00,58.1,54.6,29.65,ESE,112,2.0,4.9,88,0.00,,,0.30,VWS V14.01,2013-04-04 23:48:00,
2013-04-04 16:49:00,58.1,54.6,29.65,SE,135,0.0,4.3,88,0.00,,,0.30,VWS V14.01,2013-04-04 23:49:00,
2013-04-04 16:51:00,58.1,54.6,29.65,WNW,292,0.0,4.3,88,0.00,,,0.30,VWS V14.01,2013-04-04 23:51:00,
2013-04-04 16:53:00,58.3,54.8,29.65,NNW,338,0.0,4.3,88,0.00,,,0.30,VWS V14.01,2013-04-04 23:53:00,
2013-04-04 16:54:00,58.1,54.6,29.65,NNW,338,2.7,4.3,88,0.00,,,0.30,VWS V14.01,2013-04-04 23:54:00,
2013-04-04 16:56:00,58.1,54.6,29.65,NNW,338,0.9,4.3,88,0.00,,,0.30,VWS V14.01,2013-04-04 23:56:00,
2013-04-04 16:58:00,58.3,54.8,29.65,WNW,292,1.3,4.3,88,0.00,,,0.30,VWS V14.01,2013-04-04 23:58:00,
2013-04-04 16:59:00,58.3,54.8,29.65,ENE,68,2.9,4.3,88,0.00,,,0.30,VWS V14.01,2013-04-04 23:59:00,
2013-04-04 17:01:00,58.3,54.8,29.65,ENE,68,0.9,3.1,88,0.00,,,0.30,VWS V14.01,2013-04-05 00:01:00,
2013-04-04 17:03:00,58.3,54.8,29.65,ENE,68,3.1,3.1,88,0.00,,,0.30,VWS V14.01,2013-04-05 00:03:00,
2013-04-04 17:04:00,58.3,54.8,29.65,ENE,68,1.1,3.1,88,0.00,,,0.30,VWS V14.01,2013-04-05 00:04:00,
2013-04-04 17:07:00,58.3,54.8,29.68,North,0,2.2,4.7,88,0.00,,,0.30,VWS V14.01,2013-04-05 00:07:00,
2013-04-04 17:08:00,58.3,54.8,29.68,ENE,68,0.0,4.7,88,0.00,,,0.30,VWS V14.01,2013-04-05 00:08:00,
2013-04-04 17:09:00,58.3,54.8,29.68,ENE,68,1.3,4.7,88,0.00,,,0.30,VWS V14.01,2013-04-05 00:09:00,
2013-04-04 17:12:00,58.3,54.4,29.68,NE,45,0.9,4.7,87,0.00,,,0.30,VWS V14.01,2013-04-05 00:12:00,
2013-04-04 17:13:00,58.3,54.4,29.68,NNW,338,1.6,4.7,87,0.00,,,0.30,VWS V14.01,2013-04-05 00:13:00,
2013-04-04 17:14:00,58.3,54.4,29.68,NNE,22,2.9,4.7,87,0.00,,,0.30,VWS V14.01,2013-04-05 00:14:00,
2013-04-04 17:17:00,58.3,54.4,29.68,NE,45,6.3,6.3,87,0.00,,,0.30,VWS V14.01,2013-04-05 00:17:00,
2013-04-04 17:18:00,58.3,54.4,29.68,East,90,4.0,6.3,87,0.00,,,0.30,VWS V14.01,2013-04-05 00:18:00,
2013-04-04 17:19:00,58.3,54.4,29.68,NW,315,0.0,6.3,87,0.00,,,0.30,VWS V14.01,2013-04-05 00:19:00,
2013-04-04 17:20:00,58.3,54.4,29.68,NW,315,0.0,6.3,87,0.00,,,0.30,VWS V14.01,2013-04-05 00:20:00,
2013-04-04 17:22:00,58.3,54.4,29.68,East,90,0.0,6.3,87,0.00,,,0.30,VWS V14.01,2013-04-05 00:22:00,
2013-04-04 17:23:00,58.3,54.4,29.68,NNW,338,0.0,6.3,87,0.00,,,0.30,VWS V14.01,2013-04-05 00:23:00,
2013-04-04 17:24:00,58.3,54.4,29.68,ENE,68,0.0,6.3,87,0.00,,,0.30,VWS V14.01,2013-04-05 00:24:00,
2013-04-04 17:25:00,58.3,54.4,29.68,NW,315,1.1,6.3,87,0.00,,,0.30,VWS V14.01,2013-04-05 00:25:00,
2013-04-04 17:27:00,58.5,54.6,29.68,NW,315,2.0,6.3,87,0.00,,,0.30,VWS V14.01,2013-04-05 00:27:00,
2013-04-04 17:28:00,58.5,54.6,29.68,NE,45,2.0,6.3,87,0.00,,,0.30,VWS V14.01,2013-04-05 00:28:00,
2013-04-04 17:29:00,58.3,54.4,29.68,ENE,68,0.0,6.3,87,0.00,,,0.30,VWS V14.01,2013-04-05 00:29:00,
2013-04-04 17:30:00,58.3,54.4,29.68,NNE,22,0.0,6.3,87,0.00,,,0.30,VWS V14.01,2013-04-05 00:30:00,
2013-04-04 17:32:00,58.3,54.1,29.68,ENE,68,0.0,6.3,86,0.00,,,0.30,VWS V14.01,2013-04-05 00:32:00,
2013-04-04 17:33:00,58.5,54.6,29.68,NW,315,0.0,4.0,87,0.00,,,0.30,VWS V14.01,2013-04-05 00:33:00,
2013-04-04 17:34:00,58.5,54.6,29.68,WNW,292,0.0,4.0,87,0.00,,,0.30,VWS V14.01,2013-04-05 00:34:00,
2013-04-04 17:36:00,58.5,54.6,29.68,WNW,292,0.0,2.0,87,0.00,,,0.30,VWS V14.01,2013-04-05 00:36:00,
2013-04-04 17:37:00,58.5,54.9,29.68,North,0,1.1,2.0,88,0.00,,,0.30,VWS V14.01,2013-04-05 00:37:00,
2013-04-04 17:38:00,58.5,54.6,29.68,NW,315,0.9,2.0,87,0.00,,,0.30,VWS V14.01,2013-04-05 00:38:00,
2013-04-04 17:39:00,58.5,54.6,29.68,East,90,3.1,3.1,87,0.00,,,0.30,VWS V14.01,2013-04-05 00:39:00,
2013-04-04 17:41:00,58.3,54.1,29.68,NNE,22,5.6,5.6,86,0.00,,,0.30,VWS V14.01,2013-04-05 00:41:00,
2013-04-04 17:42:00,58.1,53.9,29.68,NE,45,1.6,5.6,86,0.00,,,0.30,VWS V14.01,2013-04-05 00:42:00,
2013-04-04 17:43:00,58.1,53.9,29.68,NNW,338,1.3,5.6,86,0.00,,,0.30,VWS V14.01,2013-04-05 00:43:00,
2013-04-04 17:45:00,58.1,53.9,29.68,ENE,68,0.0,5.6,86,0.00,,,0.30,VWS V14.01,2013-04-05 00:45:00,
2013-04-04 17:48:00,57.9,53.8,29.68,East,90,2.0,5.6,86,0.00,,,0.30,VWS V14.01,2013-04-05 00:48:00,
2013-04-04 17:50:00,57.9,53.8,29.68,ENE,68,1.3,5.6,86,0.00,,,0.30,VWS V14.01,2013-04-05 00:50:00,
2013-04-04 17:51:00,57.9,53.8,29.68,East,90,0.9,5.6,86,0.00,,,0.30,VWS V14.01,2013-04-05 00:51:00,
2013-04-04 17:53:00,57.9,53.8,29.68,WNW,292,0.0,5.6,86,0.00,,,0.30,VWS V14.01,2013-04-05 00:53:00,
2013-04-04 17:54:00,57.9,53.8,29.68,East,90,1.6,5.6,86,0.00,,,0.30,VWS V14.01,2013-04-05 00:54:00,
2013-04-04 17:55:00,57.9,53.8,29.68,NNW,338,0.0,5.6,86,0.00,,,0.30,VWS V14.01,2013-04-05 00:55:00,
2013-04-04 17:56:00,57.9,53.8,29.68,NNW,338,0.0,5.6,86,0.00,,,0.30,VWS V14.01,2013-04-05 00:56:00,
2013-04-04 17:58:00,57.7,53.6,29.68,NNW,338,2.5,4.0,86,0.00,,,0.30,VWS V14.01,2013-04-05 00:58:00,
2013-04-04 17:59:00,57.7,53.6,29.68,NNW,338,0.9,4.0,86,0.00,,,0.30,VWS V14.01,2013-04-05 00:59:00,
2013-04-04 18:00:00,57.7,53.6,29.68,NE,45,0.9,4.0,86,0.00,,,0.30,VWS V14.01,2013-04-05 01:00:00,
2013-04-04 18:01:00,57.7,53.6,29.68,East,90,0.0,4.0,86,0.00,,,0.30,VWS V14.01,2013-04-05 01:01:00,
2013-04-04 18:03:00,57.6,53.4,29.68,NNW,338,2.2,4.0,86,0.00,,,0.30,VWS V14.01,2013-04-05 01:03:00,
2013-04-04 18:04:00,57.6,53.4,29.68,East,90,2.7,3.1,86,0.00,,,0.30,VWS V14.01,2013-04-05 01:04:00,
2013-04-04 18:05:00,57.6,53.7,29.68,East,90,0.0,3.1,87,0.00,,,0.30,VWS V14.01,2013-04-05 01:05:00,
2013-04-04 18:06:00,57.6,53.7,29.68,ENE,68,0.0,3.1,87,0.00,,,0.30,VWS V14.01,2013-04-05 01:06:00,
2013-04-04 18:08:00,57.6,53.7,29.65,NNE,22,0.0,3.1,87,0.00,,,0.30,VWS V14.01,2013-04-05 01:08:00,
2013-04-04 18:09:00,57.6,53.7,29.65,ENE,68,0.9,3.1,87,0.00,,,0.30,VWS V14.01,2013-04-05 01:09:00,
2013-04-04 18:10:00,57.4,53.5,29.65,East,90,0.0,3.1,87,0.00,,,0.30,VWS V14.01,2013-04-05 01:10:00,
2013-04-04 18:11:00,57.4,53.5,29.65,East,90,0.0,3.1,87,0.00,,,0.30,VWS V14.01,2013-04-05 01:11:00,
2013-04-04 18:13:00,57.6,53.7,29.65,ENE,68,0.9,3.1,87,0.00,,,0.30,VWS V14.01,2013-04-05 01:13:00,
2013-04-04 18:14:00,57.6,54.0,29.65,NNE,22,0.0,2.7,88,0.00,,,0.30,VWS V14.01,2013-04-05 01:14:00,
2013-04-04 18:15:00,57.6,54.0,29.65,NNW,338,0.0,2.7,88,0.00,,,0.30,VWS V14.01,2013-04-05 01:15:00,
2013-04-04 18:16:00,57.6,54.0,29.65,NNW,338,0.0,2.7,88,0.00,,,0.30,VWS V14.01,2013-04-05 01:16:00,
2013-04-04 18:18:00,57.6,54.0,29.65,East,90,0.0,2.7,88,0.00,,,0.30,VWS V14.01,2013-04-05 01:18:00,
2013-04-04 18:19:00,57.4,53.9,29.65,ENE,68,0.0,2.7,88,0.00,,,0.30,VWS V14.01,2013-04-05 01:19:00,
2013-04-04 18:20:00,57.4,53.9,29.65,East,90,2.7,2.7,88,0.00,,,0.30,VWS V14.01,2013-04-05 01:20:00,
2013-04-04 18:21:00,57.4,53.9,29.65,East,90,2.7,2.7,88,0.00,,,0.30,VWS V14.01,2013-04-05 01:21:00,
2013-04-04 18:23:00,57.2,53.4,29.68,NE,45,0.0,5.4,87,0.00,,,0.30,VWS V14.01,2013-04-05 01:23:00,
2013-04-04 18:24:00,57.2,53.4,29.68,ESE,112,2.5,5.4,87,0.00,,,0.30,VWS V14.01,2013-04-05 01:24:00,
2013-04-04 18:25:00,57.2,53.4,29.68,SE,135,0.0,5.4,87,0.00,,,0.30,VWS V14.01,2013-04-05 01:25:00,
2013-04-04 18:26:00,57.2,53.4,29.68,SE,135,0.0,5.4,87,0.00,,,0.30,VWS V14.01,2013-04-05 01:26:00,
2013-04-04 18:28:00,57.2,53.7,29.68,NNE,22,0.0,5.4,88,0.00,,,0.30,VWS V14.01,2013-04-05 01:28:00,
2013-04-04 18:29:00,57.2,54.0,29.68,NNE,22,0.0,5.4,89,0.00,,,0.30,VWS V14.01,2013-04-05 01:29:00,
2013-04-04 18:30:00,57.2,54.0,29.68,NNE,22,0.0,5.4,89,0.00,,,0.30,VWS V14.01,2013-04-05 01:30:00,
2013-04-04 18:31:00,57.2,54.0,29.68,NNE,22,0.0,5.4,89,0.00,,,0.30,VWS V14.01,2013-04-05 01:31:00,
2013-04-04 18:33:00,57.2,54.0,29.68,WNW,292,1.6,5.4,89,0.00,,,0.30,VWS V14.01,2013-04-05 01:33:00,
2013-04-04 18:35:00,57.2,54.0,29.68,West,270,2.0,5.4,89,0.00,,,0.30,VWS V14.01,2013-04-05 01:35:00,
2013-04-04 18:36:00,57.0,53.8,29.68,WNW,292,0.0,5.4,89,0.00,,,0.30,VWS V14.01,2013-04-05 01:36:00,
2013-04-04 18:38:00,57.0,53.8,29.68,WNW,292,0.0,5.4,89,0.00,,,0.30,VWS V14.01,2013-04-05 01:38:00,
2013-04-04 18:40:00,57.0,53.8,29.68,North,0,0.0,2.5,89,0.00,,,0.30,VWS V14.01,2013-04-05 01:40:00,
2013-04-04 18:41:00,56.8,53.6,29.68,WNW,292,0.0,2.5,89,0.00,,,0.30,VWS V14.01,2013-04-05 01:41:00,
2013-04-04 18:43:00,56.8,53.6,29.68,WNW,292,0.0,2.0,89,0.00,,,0.30,VWS V14.01,2013-04-05 01:43:00,
2013-04-04 18:44:00,56.8,53.6,29.68,ENE,68,1.1,2.0,89,0.00,,,0.30,VWS V14.01,2013-04-05 01:44:00,
2013-04-04 18:46:00,56.8,53.6,29.68,ENE,68,0.0,2.0,89,0.00,,,0.30,VWS V14.01,2013-04-05 01:46:00,
2013-04-04 18:48:00,56.8,53.6,29.68,NE,45,0.0,2.0,89,0.00,,,0.30,VWS V14.01,2013-04-05 01:48:00,
2013-04-04 18:50:00,56.7,53.5,29.68,East,90,0.0,2.0,89,0.00,,,0.30,VWS V14.01,2013-04-05 01:50:00,
2013-04-04 18:51:00,56.7,53.5,29.68,East,90,0.0,1.1,89,0.00,,,0.30,VWS V14.01,2013-04-05 01:51:00,
2013-04-04 18:54:00,56.7,53.8,29.65,WSW,248,0.0,1.1,90,0.00,,,0.30,VWS V14.01,2013-04-05 01:54:00,
2013-04-04 18:55:00,56.7,53.8,29.65,WSW,248,0.0,1.1,90,0.00,,,0.30,VWS V14.01,2013-04-05 01:55:00,
2013-04-04 18:56:00,56.7,53.8,29.65,East,90,0.0,1.1,90,0.00,,,0.30,VWS V14.01,2013-04-05 01:56:00,
2013-04-04 18:59:00,56.5,53.6,29.65,East,90,0.0,1.1,90,0.00,,,0.30,VWS V14.01,2013-04-05 01:59:00,
2013-04-04 19:00:00,56.5,53.6,29.65,East,90,0.0,1.1,90,0.00,,,0.30,VWS V14.01,2013-04-05 02:00:00,
2013-04-04 19:01:00,56.5,53.6,29.65,NE,45,0.0,0.0,90,0.00,,,0.30,VWS V14.01,2013-04-05 02:01:00,
2013-04-04 19:02:00,56.5,53.6,29.65,West,270,0.0,0.0,90,0.00,,,0.30,VWS V14.01,2013-04-05 02:02:00,
2013-04-04 19:05:00,56.3,53.4,29.65,West,270,0.0,0.0,90,0.00,,,0.30,VWS V14.01,2013-04-05 02:05:00,
2013-04-04 19:06:00,56.3,53.4,29.65,West,270,1.3,1.3,90,0.00,,,0.30,VWS V14.01,2013-04-05 02:06:00,
2013-04-04 19:07:00,56.3,53.4,29.65,ENE,68,0.9,1.3,90,0.00,,,0.30,VWS V14.01,2013-04-05 02:07:00,
2013-04-04 19:10:00,56.3,53.4,29.65,ESE,112,0.0,1.3,90,0.00,,,0.30,VWS V14.01,2013-04-05 02:10:00,
2013-04-04 19:12:00,56.3,53.4,29.65,NW,315,3.1,3.1,90,0.00,,,0.30,VWS V14.01,2013-04-05 02:12:00,
2013-04-04 19:15:00,56.1,53.2,29.65,ESE,112,0.0,3.1,90,0.00,,,0.30,VWS V14.01,2013-04-05 02:15:00,
2013-04-04 19:17:00,55.9,53.0,29.65,ESE,112,0.0,3.1,90,0.00,,,0.30,VWS V14.01,2013-04-05 02:17:00,
2013-04-04 19:20:00,55.9,53.0,29.65,NNW,338,0.9,3.1,90,0.00,,,0.30,VWS V14.01,2013-04-05 02:20:00,
2013-04-04 19:22:00,55.9,53.0,29.68,ENE,68,1.3,3.1,90,0.00,,,0.30,VWS V14.01,2013-04-05 02:22:00,
2013-04-04 19:25:00,55.8,52.9,29.68,NE,45,0.0,3.1,90,0.00,,,0.30,VWS V14.01,2013-04-05 02:25:00,
2013-04-04 19:27:00,55.6,52.7,29.68,NE,45,0.0,3.1,90,0.00,,,0.30,VWS V14.01,2013-04-05 02:27:00,
2013-04-04 19:28:00,55.6,52.7,29.68,NE,45,0.0,3.1,90,0.00,,,0.30,VWS V14.01,2013-04-05 02:28:00,
2013-04-04 19:30:00,55.4,52.5,29.68,ENE,68,0.0,1.3,90,0.00,,,0.30,VWS V14.01,2013-04-05 02:30:00,
2013-04-04 19:32:00,55.2,52.6,29.68,ESE,112,0.0,1.3,91,0.00,,,0.30,VWS V14.01,2013-04-05 02:32:00,
2013-04-04 19:33:00,55.2,52.6,29.68,ESE,112,0.0,1.3,91,0.00,,,0.30,VWS V14.01,2013-04-05 02:33:00,
2013-04-04 19:35:00,55.0,52.5,29.68,ESE,112,0.0,1.3,91,0.00,,,0.30,VWS V14.01,2013-04-05 02:35:00,
2013-04-04 19:37:00,55.0,52.5,29.68,WSW,248,0.0,1.3,91,0.00,,,0.30,VWS V14.01,2013-04-05 02:37:00,
2013-04-04 19:38:00,55.0,52.5,29.68,WSW,248,0.0,0.0,91,0.00,,,0.30,VWS V14.01,2013-04-05 02:38:00,
2013-04-04 19:40:00,54.9,52.3,29.68,East,90,0.0,0.0,91,0.00,,,0.30,VWS V14.01,2013-04-05 02:40:00,
2013-04-04 19:42:00,54.7,52.1,29.68,SW,225,0.0,0.0,91,0.00,,,0.30,VWS V14.01,2013-04-05 02:42:00,
2013-04-04 19:43:00,54.7,52.1,29.68,SW,225,0.0,0.0,91,0.00,,,0.30,VWS V14.01,2013-04-05 02:43:00,
2013-04-04 19:45:00,54.7,52.1,29.68,WNW,292,0.0,0.0,91,0.00,,,0.30,VWS V14.01,2013-04-05 02:45:00,
2013-04-04 19:46:00,54.7,52.1,29.68,WNW,292,0.0,0.0,91,0.00,,,0.30,VWS V14.01,2013-04-05 02:46:00,
2013-04-04 19:48:00,54.9,52.3,29.68,West,270,0.0,1.1,91,0.00,,,0.30,VWS V14.01,2013-04-05 02:48:00,
2013-04-04 19:50:00,54.7,52.1,29.68,WSW,248,0.0,1.1,91,0.00,,,0.30,VWS V14.01,2013-04-05 02:50:00,
2013-04-04 19:51:00,54.7,52.1,29.68,WSW,248,0.0,1.1,91,0.00,,,0.30,VWS V14.01,2013-04-05 02:51:00,
2013-04-04 19:53:00,54.7,52.1,29.68,WNW,292,0.0,1.1,91,0.00,,,0.30,VWS V14.01,2013-04-05 02:53:00,
2013-04-04 19:55:00,54.5,51.9,29.68,WSW,248,0.0,1.1,91,0.00,,,0.30,VWS V14.01,2013-04-05 02:55:00,
2013-04-04 19:56:00,54.5,51.9,29.68,SE,135,0.0,1.1,91,0.00,,,0.30,VWS V14.01,2013-04-05 02:56:00,
2013-04-04 19:58:00,54.5,51.9,29.68,East,90,0.0,1.1,91,0.00,,,0.30,VWS V14.01,2013-04-05 02:58:00,
2013-04-04 20:00:00,54.3,51.8,29.68,SE,135,0.0,1.1,91,0.00,,,0.30,VWS V14.01,2013-04-05 03:00:00,
2013-04-04 20:01:00,54.3,51.8,29.68,SE,135,0.0,1.1,91,0.00,,,0.30,VWS V14.01,2013-04-05 03:01:00,
2013-04-04 20:03:00,54.3,51.8,29.68,ESE,112,0.0,1.1,91,0.00,,,0.30,VWS V14.01,2013-04-05 03:03:00,
2013-04-04 20:05:00,54.1,51.6,29.68,WSW,248,0.0,0.0,91,0.00,,,0.30,VWS V14.01,2013-04-05 03:05:00,
2013-04-04 20:06:00,54.1,51.6,29.68,WSW,248,0.0,0.0,91,0.00,,,0.30,VWS V14.01,2013-04-05 03:06:00,
2013-04-04 20:08:00,54.0,51.4,29.68,East,90,0.0,0.0,91,0.00,,,0.30,VWS V14.01,2013-04-05 03:08:00,
2013-04-04 20:11:00,53.8,51.2,29.68,East,90,0.0,0.0,91,0.00,,,0.30,VWS V14.01,2013-04-05 03:11:00,
2013-04-04 20:13:00,53.6,51.0,29.68,East,90,0.0,0.0,91,0.00,,,0.30,VWS V14.01,2013-04-05 03:13:00,
2013-04-04 20:16:00,53.6,51.0,29.68,East,90,0.0,0.0,91,0.00,,,0.30,VWS V14.01,2013-04-05 03:16:00,
2013-04-04 20:18:00,53.6,51.0,29.68,ESE,112,0.0,0.0,91,0.00,,,0.30,VWS V14.01,2013-04-05 03:18:00,
2013-04-04 20:21:00,53.6,51.3,29.68,East,90,0.0,0.0,92,0.00,,,0.30,VWS V14.01,2013-04-05 03:21:00,
2013-04-04 20:22:00,53.6,51.3,29.68,East,90,0.0,0.0,92,0.00,,,0.30,VWS V14.01,2013-04-05 03:22:00,
2013-04-04 20:23:00,53.4,51.2,29.68,East,90,0.0,0.0,92,0.00,,,0.30,VWS V14.01,2013-04-05 03:23:00,
2013-04-04 20:26:00,53.2,51.0,29.68,East,90,0.0,0.0,92,0.00,,,0.30,VWS V14.01,2013-04-05 03:26:00,
2013-04-04 20:27:00,53.2,51.0,29.68,East,90,0.0,0.0,92,0.00,,,0.30,VWS V14.01,2013-04-05 03:27:00,
2013-04-04 20:28:00,53.2,51.0,29.68,East,90,0.0,0.0,92,0.00,,,0.30,VWS V14.01,2013-04-05 03:28:00,
2013-04-04 20:31:00,53.1,50.8,29.68,East,90,0.0,0.0,92,0.00,,,0.30,VWS V14.01,2013-04-05 03:31:00,
2013-04-04 20:32:00,53.1,50.8,29.68,East,90,0.0,0.0,92,0.00,,,0.30,VWS V14.01,2013-04-05 03:32:00,
2013-04-04 20:33:00,53.1,50.8,29.68,East,90,0.0,0.0,92,0.00,,,0.30,VWS V14.01,2013-04-05 03:33:00,
2013-04-04 20:37:00,52.9,50.6,29.68,East,90,0.0,0.0,92,0.00,,,0.30,VWS V14.01,2013-04-05 03:37:00,
2013-04-04 20:38:00,52.9,50.6,29.68,East,90,0.0,0.0,92,0.00,,,0.30,VWS V14.01,2013-04-05 03:38:00,
2013-04-04 20:39:00,52.9,50.6,29.68,East,90,0.0,0.0,92,0.00,,,0.30,VWS V14.01,2013-04-05 03:39:00,
2013-04-04 20:42:00,52.9,50.6,29.68,East,90,0.0,0.0,92,0.00,,,0.30,VWS V14.01,2013-04-05 03:42:00,
2013-04-04 20:43:00,52.7,50.5,29.68,East,90,0.0,0.0,92,0.00,,,0.30,VWS V14.01,2013-04-05 03:43:00,
2013-04-04 20:44:00,52.7,50.5,29.68,East,90,0.0,0.0,92,0.00,,,0.30,VWS V14.01,2013-04-05 03:44:00,
2013-04-04 20:47:00,52.5,50.3,29.68,East,90,0.0,0.0,92,0.00,,,0.30,VWS V14.01,2013-04-05 03:47:00,
2013-04-04 20:48:00,52.5,50.3,29.68,East,90,0.0,0.0,92,0.00,,,0.30,VWS V14.01,2013-04-05 03:48:00,
2013-04-04 20:49:00,52.5,50.3,29.68,East,90,0.0,0.0,92,0.00,,,0.30,VWS V14.01,2013-04-05 03:49:00,
2013-04-04 20:52:00,52.3,50.1,29.71,East,90,0.0,0.0,92,0.00,,,0.30,VWS V14.01,2013-04-05 03:52:00,
2013-04-04 20:53:00,52.3,50.1,29.71,East,90,0.0,0.0,92,0.00,,,0.30,VWS V14.01,2013-04-05 03:53:00,
2013-04-04 20:54:00,52.3,50.1,29.71,East,90,0.0,0.0,92,0.00,,,0.30,VWS V14.01,2013-04-05 03:54:00,
2013-04-04 20:57:00,52.3,50.4,29.71,East,90,0.0,0.0,93,0.00,,,0.30,VWS V14.01,2013-04-05 03:57:00,
2013-04-04 20:58:00,52.3,50.4,29.71,East,90,0.0,0.0,93,0.00,,,0.30,VWS V14.01,2013-04-05 03:58:00,
2013-04-04 20:59:00,52.3,50.4,29.71,East,90,0.0,0.0,93,0.00,,,0.30,VWS V14.01,2013-04-05 03:59:00,
2013-04-04 21:00:00,52.3,50.4,29.71,East,90,0.0,0.0,93,0.00,,,0.30,VWS V14.01,2013-04-05 04:00:00,
2013-04-04 21:05:00,52.3,50.4,29.71,East,90,0.0,0.0,93,0.00,,,0.30,VWS V14.01,2013-04-05 04:05:00,
2013-04-04 21:10:00,52.3,50.4,29.71,East,90,0.0,0.0,93,0.00,,,0.30,VWS V14.01,2013-04-05 04:10:00,
2013-04-04 21:15:00,52.7,50.7,29.71,East,90,0.0,0.0,93,0.00,,,0.30,VWS V14.01,2013-04-05 04:15:00,
2013-04-04 21:20:00,52.3,50.4,29.71,ESE,112,0.0,0.0,93,0.00,,,0.30,VWS V14.01,2013-04-05 04:20:00,
2013-04-04 21:25:00,52.3,50.4,29.71,East,90,0.0,0.0,93,0.00,,,0.30,VWS V14.01,2013-04-05 04:25:00,
2013-04-04 21:30:00,52.2,50.2,29.71,East,90,0.0,0.0,93,0.00,,,0.30,VWS V14.01,2013-04-05 04:30:00,
2013-04-04 21:35:00,52.0,50.0,29.71,East,90,0.0,0.0,93,0.00,,,0.30,VWS V14.01,2013-04-05 04:35:00,
2013-04-04 21:40:00,52.0,50.0,29.71,East,90,0.0,0.0,93,0.00,,,0.30,VWS V14.01,2013-04-05 04:40:00,
2013-04-04 21:45:00,52.0,50.3,29.71,East,90,0.0,0.0,94,0.00,,,0.30,VWS V14.01,2013-04-05 04:45:00,
2013-04-04 21:46:00,52.0,50.3,29.71,East,90,0.0,0.0,94,0.00,,,0.30,VWS V14.01,2013-04-05 04:46:00,
2013-04-04 21:50:00,52.2,50.5,29.71,ESE,112,0.0,0.0,94,0.00,,,0.30,VWS V14.01,2013-04-05 04:50:00,
2013-04-04 21:51:00,52.2,50.5,29.71,ESE,112,0.0,0.0,94,0.00,,,0.30,VWS V14.01,2013-04-05 04:51:00,
2013-04-04 21:55:00,52.2,50.5,29.71,ESE,112,0.0,0.0,94,0.00,,,0.30,VWS V14.01,2013-04-05 04:55:00,
2013-04-04 21:56:00,52.2,50.5,29.71,ESE,112,0.0,0.0,94,0.00,,,0.30,VWS V14.01,2013-04-05 04:56:00,
2013-04-04 21:57:00,52.2,50.5,29.71,ESE,112,0.0,0.0,94,0.00,,,0.30,VWS V14.01,2013-04-05 04:57:00,
2013-04-04 22:00:00,52.2,50.5,29.71,SE,135,0.0,0.0,94,0.00,,,0.30,VWS V14.01,2013-04-05 05:00:00,
2013-04-04 22:01:00,52.2,50.5,29.71,SE,135,0.0,0.0,94,0.00,,,0.30,VWS V14.01,2013-04-05 05:01:00,
2013-04-04 22:02:00,52.2,50.5,29.71,WNW,292,0.0,0.0,94,0.00,,,0.30,VWS V14.01,2013-04-05 05:02:00,
2013-04-04 22:05:00,52.2,50.5,29.71,WSW,248,0.0,0.0,94,0.00,,,0.30,VWS V14.01,2013-04-05 05:05:00,
2013-04-04 22:07:00,52.2,50.5,29.71,WSW,248,0.0,0.0,94,0.00,,,0.30,VWS V14.01,2013-04-05 05:07:00,
2013-04-04 22:10:00,52.2,50.5,29.71,East,90,0.0,0.0,94,0.00,,,0.30,VWS V14.01,2013-04-05 05:10:00,
2013-04-04 22:12:00,52.2,50.5,29.71,ENE,68,0.0,0.0,94,0.00,,,0.30,VWS V14.01,2013-04-05 05:12:00,
2013-04-04 22:15:00,52.2,50.5,29.71,ENE,68,0.0,0.0,94,0.00,,,0.30,VWS V14.01,2013-04-05 05:15:00,
2013-04-04 22:16:00,52.2,50.5,29.71,ENE,68,0.0,0.0,94,0.00,,,0.30,VWS V14.01,2013-04-05 05:16:00,
2013-04-04 22:17:00,52.0,50.3,29.71,ENE,68,0.0,0.0,94,0.00,,,0.30,VWS V14.01,2013-04-05 05:17:00,
2013-04-04 22:20:00,52.0,50.3,29.71,NNE,22,0.0,0.0,94,0.00,,,0.30,VWS V14.01,2013-04-05 05:20:00,
2013-04-04 22:21:00,52.0,50.3,29.71,NNE,22,0.0,0.0,94,0.00,,,0.30,VWS V14.01,2013-04-05 05:21:00,
2013-04-04 22:22:00,52.0,50.3,29.71,NW,315,0.0,0.0,94,0.00,,,0.30,VWS V14.01,2013-04-05 05:22:00,
2013-04-04 22:25:00,51.8,50.1,29.71,East,90,0.0,0.0,94,0.00,,,0.30,VWS V14.01,2013-04-05 05:25:00,
2013-04-04 22:26:00,51.8,50.1,29.71,NNW,338,0.0,0.0,94,0.00,,,0.30,VWS V14.01,2013-04-05 05:26:00,
2013-04-04 22:27:00,51.8,50.1,29.71,NNW,338,0.0,0.0,94,0.00,,,0.30,VWS V14.01,2013-04-05 05:27:00,
2013-04-04 22:30:00,51.8,50.1,29.71,SE,135,0.0,0.0,94,0.00,,,0.30,VWS V14.01,2013-04-05 05:30:00,
2013-04-04 22:31:00,51.8,50.1,29.71,ESE,112,0.0,0.0,94,0.00,,,0.30,VWS V14.01,2013-04-05 05:31:00,
2013-04-04 22:32:00,51.8,50.1,29.71,ESE,112,0.0,0.0,94,0.00,,,0.30,VWS V14.01,2013-04-05 05:32:00,
2013-04-04 22:35:00,51.8,50.1,29.71,NW,315,2.9,2.9,94,0.00,,,0.30,VWS V14.01,2013-04-05 05:35:00,
2013-04-04 22:37:00,52.0,50.3,29.74,WNW,292,0.0,2.9,94,0.00,,,0.30,VWS V14.01,2013-04-05 05:37:00,
2013-04-04 22:40:00,52.0,50.3,29.74,West,270,0.0,2.9,94,0.00,,,0.30,VWS V14.01,2013-04-05 05:40:00,
2013-04-04 22:42:00,52.0,50.3,29.74,West,270,0.0,2.9,94,0.00,,,0.30,VWS V14.01,2013-04-05 05:42:00,
2013-04-04 22:45:00,52.0,50.3,29.74,SW,225,0.0,2.9,94,0.00,,,0.30,VWS V14.01,2013-04-05 05:45:00,
2013-04-04 22:47:00,52.0,50.3,29.74,NNE,22,0.0,2.9,94,0.00,,,0.30,VWS V14.01,2013-04-05 05:47:00,
2013-04-04 22:51:00,51.8,50.1,29.74,ENE,68,0.0,2.9,94,0.00,,,0.30,VWS V14.01,2013-04-05 05:51:00,
2013-04-04 22:52:00,51.8,50.1,29.74,NNW,338,2.9,2.9,94,0.00,,,0.30,VWS V14.01,2013-04-05 05:52:00,
2013-04-04 22:56:00,52.0,50.3,29.74,SSW,202,0.0,2.9,94,0.00,,,0.30,VWS V14.01,2013-04-05 05:56:00,
2013-04-04 22:57:00,52.0,50.3,29.74,WNW,292,0.0,2.9,94,0.00,,,0.30,VWS V14.01,2013-04-05 05:57:00,
2013-04-04 23:01:00,52.0,50.3,29.74,ESE,112,0.0,2.9,94,0.00,,,0.30,VWS V14.01,2013-04-05 06:01:00,
2013-04-04 23:02:00,52.0,50.3,29.74,ENE,68,0.0,2.9,94,0.00,,,0.30,VWS V14.01,2013-04-05 06:02:00,
2013-04-04 23:06:00,51.8,50.1,29.74,ENE,68,0.0,2.9,94,0.00,,,0.30,VWS V14.01,2013-04-05 06:06:00,
2013-04-04 23:07:00,51.8,50.1,29.74,ENE,68,0.0,2.9,94,0.00,,,0.30,VWS V14.01,2013-04-05 06:07:00,
2013-04-04 23:12:00,51.6,50.2,29.74,WSW,248,0.0,0.0,95,0.00,,,0.30,VWS V14.01,2013-04-05 06:12:00,
2013-04-04 23:13:00,51.6,50.2,29.74,WSW,248,0.0,0.0,95,0.00,,,0.30,VWS V14.01,2013-04-05 06:13:00,
2013-04-04 23:17:00,51.6,50.2,29.74,East,90,0.0,0.0,95,0.00,,,0.30,VWS V14.01,2013-04-05 06:17:00,
2013-04-04 23:18:00,51.6,50.2,29.74,ESE,112,0.0,0.0,95,0.00,,,0.30,VWS V14.01,2013-04-05 06:18:00,
2013-04-04 23:22:00,51.6,50.2,29.74,ESE,112,3.8,4.0,95,0.00,,,0.30,VWS V14.01,2013-04-05 06:22:00,
2013-04-04 23:23:00,51.6,50.0,29.74,East,90,4.0,4.0,94,0.00,,,0.30,VWS V14.01,2013-04-05 06:23:00,
2013-04-04 23:27:00,51.8,50.1,29.74,WNW,292,3.8,5.4,94,0.00,,,0.30,VWS V14.01,2013-04-05 06:27:00,
2013-04-04 23:28:00,51.8,50.1,29.74,SSE,158,2.5,5.4,94,0.00,,,0.30,VWS V14.01,2013-04-05 06:28:00,
2013-04-04 23:32:00,51.6,50.0,29.74,ENE,68,0.0,5.4,94,0.00,,,0.30,VWS V14.01,2013-04-05 06:32:00,
2013-04-04 23:33:00,51.6,50.0,29.74,ENE,68,0.0,5.4,94,0.00,,,0.30,VWS V14.01,2013-04-05 06:33:00,
2013-04-04 23:37:00,51.4,49.8,29.74,NE,45,0.9,5.4,94,0.00,,,0.30,VWS V14.01,2013-04-05 06:37:00,
2013-04-04 23:38:00,51.6,50.0,29.74,NE,45,0.9,5.4,94,0.00,,,0.30,VWS V14.01,2013-04-05 06:38:00,
2013-04-04 23:42:00,51.4,49.8,29.74,East,90,0.0,3.8,94,0.00,,,0.30,VWS V14.01,2013-04-05 06:42:00,
2013-04-04 23:43:00,51.4,49.8,29.74,East,90,0.0,3.8,94,0.00,,,0.30,VWS V14.01,2013-04-05 06:43:00,
2013-04-04 23:47:00,51.8,50.1,29.74,ESE,112,0.9,3.6,94,0.00,,,0.30,VWS V14.01,2013-04-05 06:47:00,
2013-04-04 23:48:00,51.8,50.1,29.74,WNW,292,2.0,3.6,94,0.00,,,0.30,VWS V14.01,2013-04-05 06:48:00,
2013-04-04 23:52:00,52.2,50.5,29.74,ENE,68,3.1,6.5,94,0.00,,,0.30,VWS V14.01,2013-04-05 06:52:00,
2013-04-04 23:53:00,52.2,50.5,29.74,ENE,68,3.1,6.5,94,0.00,,,0.30,VWS V14.01,2013-04-05 06:53:00,
2013-04-04 23:57:00,52.3,50.4,29.74,East,90,2.5,6.5,93,0.00,,,0.30,VWS V14.01,2013-04-05 06:57:00,
2013-04-04 23:58:00,52.3,50.4,29.74,NNE,22,4.3,6.5,93,0.00,,,0.30,VWS V14.01,2013-04-05 06:58:00,